createdAt,value
2018-09-20T00:02:01.604Z,13.00
2018-09-20T00:04:29.961Z,12.47
2018-09-20T00:06:58.838Z,12.20
2018-09-20T00:09:27.164Z,12.47
2018-09-20T00:11:55.509Z,12.77
2018-09-20T00:14:23.866Z,12.87
2018-09-20T00:16:52.381Z,13.00
2018-09-20T00:19:20.921Z,13.17
2018-09-20T00:21:50.115Z,12.23
2018-09-20T00:24:18.734Z,12.60
2018-09-20T00:26:47.156Z,12.10
2018-09-20T00:29:15.733Z,12.90
2018-09-20T00:31:44.034Z,12.47
2018-09-20T00:34:12.554Z,11.97
2018-09-20T00:36:40.963Z,12.13
2018-09-20T00:39:10.968Z,11.30
2018-09-20T00:41:39.514Z,11.70
2018-09-20T00:44:08.265Z,11.60
2018-09-20T00:46:36.586Z,11.37
2018-09-20T00:49:04.900Z,10.77
2018-09-20T00:51:33.377Z,10.77
2018-09-20T00:54:02.224Z,11.70
2018-09-20T00:56:30.827Z,11.67
2018-09-20T00:59:00.046Z,12.70
2018-09-20T01:01:28.425Z,12.37
2018-09-20T01:04:00.537Z,12.87
2018-09-20T01:06:33.891Z,12.57
2018-09-20T01:09:02.328Z,12.50
2018-09-20T01:11:30.692Z,12.10
2018-09-20T01:13:59.115Z,12.50
2018-09-20T01:16:27.412Z,12.40
2018-09-20T01:18:55.765Z,12.07
2018-09-20T01:21:24.162Z,11.13
2018-09-20T01:23:52.487Z,12.60
2018-09-20T01:26:20.888Z,11.70
2018-09-20T01:28:49.377Z,11.47
2018-09-20T01:31:17.663Z,12.00
2018-09-20T01:33:45.942Z,11.47
2018-09-20T01:36:14.535Z,11.20
2018-09-20T01:38:42.892Z,11.80
2018-09-20T01:41:11.206Z,10.80
2018-09-20T01:43:39.487Z,11.70
2018-09-20T01:46:07.827Z,11.67
2018-09-20T01:48:36.183Z,11.53
2018-09-20T01:51:04.507Z,11.93
2018-09-20T01:53:32.838Z,10.60
2018-09-20T01:56:01.186Z,12.40
2018-09-20T01:58:29.474Z,11.67
2018-09-20T02:00:57.796Z,11.77
2018-09-20T02:03:26.174Z,11.07
2018-09-20T02:05:54.778Z,11.40
2018-09-20T02:08:23.292Z,9.83
2018-09-20T02:10:51.816Z,11.27
2018-09-20T02:13:20.127Z,11.40
2018-09-20T02:15:49.188Z,10.90
2018-09-20T02:18:17.652Z,10.90
2018-09-20T02:20:45.974Z,12.30
2018-09-20T02:23:14.323Z,12.10
2018-09-20T02:25:43.485Z,9.67
2018-09-20T02:28:11.803Z,10.60
2018-09-20T02:30:40.199Z,10.10
2018-09-20T02:33:08.585Z,10.70
2018-09-20T02:35:36.953Z,10.50
2018-09-20T02:38:05.398Z,9.13
2018-09-20T02:40:34.079Z,11.03
2018-09-20T02:43:02.469Z,10.10
2018-09-20T02:45:30.791Z,11.20
2018-09-20T02:47:59.138Z,10.23
2018-09-20T02:50:27.468Z,9.43
2018-09-20T02:52:55.896Z,9.33
2018-09-20T02:55:24.474Z,10.13
2018-09-20T02:57:52.853Z,9.80
2018-09-20T03:00:21.331Z,9.80
2018-09-20T03:02:49.794Z,9.50
2018-09-20T03:05:18.291Z,9.87
2018-09-20T03:07:46.901Z,10.83
2018-09-20T03:10:15.495Z,10.60
2018-09-20T03:12:44.069Z,10.13
2018-09-20T03:15:12.403Z,10.60
2018-09-20T03:17:40.758Z,11.40
2018-09-20T03:20:09.462Z,10.90
2018-09-20T03:22:38.100Z,10.27
2018-09-20T03:25:06.512Z,10.83
2018-09-20T03:27:34.830Z,10.03
2018-09-20T03:30:03.101Z,10.30
2018-09-20T03:32:31.482Z,10.73
2018-09-20T03:34:59.738Z,10.50
2018-09-20T03:37:28.241Z,10.93
2018-09-20T03:39:56.556Z,10.03
2018-09-20T03:42:25.183Z,10.67
2018-09-20T03:44:53.683Z,10.50
2018-09-20T03:47:22.006Z,10.37
2018-09-20T03:49:50.550Z,10.80
2018-09-20T03:52:18.878Z,10.50
2018-09-20T03:54:47.636Z,11.33
2018-09-20T03:57:16.098Z,10.93
2018-09-20T03:59:44.404Z,10.73
2018-09-20T04:05:08.219Z,10.03
2018-09-20T04:07:36.543Z,10.43
2018-09-20T04:10:04.951Z,10.77
2018-09-20T04:12:33.327Z,11.13
2018-09-20T04:15:01.955Z,11.27
2018-09-20T04:17:30.312Z,10.70
2018-09-20T04:19:58.650Z,10.77
2018-09-20T04:22:27.140Z,10.70
2018-09-20T04:24:55.453Z,11.07
2018-09-20T04:27:23.791Z,11.00
2018-09-20T04:29:52.133Z,10.60
2018-09-20T04:32:20.518Z,10.00
2018-09-20T04:34:48.885Z,10.57
2018-09-20T04:37:17.217Z,10.40
2018-09-20T04:39:45.531Z,10.43
2018-09-20T04:42:13.873Z,11.13
2018-09-20T04:44:42.311Z,10.90
2018-09-20T04:47:10.947Z,11.00
2018-09-20T04:49:45.957Z,11.30
2018-09-20T04:52:14.458Z,10.67
2018-09-20T04:54:42.771Z,10.20
2018-09-20T04:57:11.130Z,10.93
2018-09-20T04:59:39.484Z,10.97
2018-09-20T05:02:07.978Z,10.43
2018-09-20T05:04:36.886Z,11.70
2018-09-20T05:07:05.239Z,13.23
2018-09-20T05:09:33.611Z,12.33
2018-09-20T05:12:02.463Z,11.83
2018-09-20T05:14:30.762Z,11.93
2018-09-20T05:16:59.306Z,10.33
2018-09-20T05:19:27.644Z,12.20
2018-09-20T05:21:55.994Z,13.30
2018-09-20T05:24:26.659Z,12.43
2018-09-20T05:26:56.259Z,12.23
2018-09-20T05:29:24.581Z,11.37
2018-09-20T05:31:52.911Z,11.90
2018-09-20T05:34:21.791Z,13.63
2018-09-20T05:36:50.467Z,12.77
2018-09-20T05:39:18.832Z,11.90
2018-09-20T05:41:47.467Z,11.67
2018-09-20T05:44:15.804Z,12.90
2018-09-20T05:46:44.508Z,12.07
2018-09-20T05:49:13.622Z,12.63
2018-09-20T05:51:41.998Z,18.10
2018-09-20T05:54:11.362Z,13.27
2018-09-20T05:56:40.169Z,16.30
2018-09-20T05:59:09.300Z,25.47
2018-09-20T06:01:38.379Z,13.73
2018-09-20T06:04:07.660Z,12.57
2018-09-20T06:06:36.823Z,13.00
2018-09-20T06:09:07.552Z,13.90
2018-09-20T06:11:35.874Z,11.97
2018-09-20T06:14:04.420Z,12.23
2018-09-20T06:16:33.002Z,12.50
2018-09-20T06:19:01.342Z,13.60
2018-09-20T06:21:29.686Z,11.97
2018-09-20T06:23:58.008Z,13.83
2018-09-20T06:26:27.643Z,13.97
2018-09-20T06:28:57.308Z,12.37
2018-09-20T06:31:25.814Z,13.50
2018-09-20T06:33:54.483Z,12.57
2018-09-20T06:36:22.850Z,13.20
2018-09-20T06:38:51.179Z,14.60
2018-09-20T06:41:20.412Z,13.43
2018-09-20T06:43:51.345Z,14.40
2018-09-20T06:46:21.853Z,12.93
2018-09-20T06:48:50.556Z,12.83
2018-09-20T06:51:21.230Z,11.90
2018-09-20T06:53:49.893Z,12.97
2018-09-20T06:56:18.843Z,11.53
2018-09-20T06:58:48.162Z,10.83
2018-09-20T07:01:16.950Z,11.50
2018-09-20T07:03:46.454Z,11.60
2018-09-20T07:06:14.987Z,10.93
2018-09-20T07:08:43.493Z,11.03
2018-09-20T07:11:12.187Z,10.00
2018-09-20T07:13:40.577Z,9.87
2018-09-20T07:16:09.974Z,11.30
2018-09-20T07:18:38.699Z,10.13
2018-09-20T07:21:07.057Z,9.77
2018-09-20T07:23:35.694Z,10.03
2018-09-20T07:26:04.027Z,10.13
2018-09-20T07:28:32.479Z,9.30
2018-09-20T07:31:00.796Z,8.90
2018-09-20T07:33:29.151Z,9.40
2018-09-20T07:35:57.563Z,8.33
2018-09-20T07:38:25.981Z,8.57
2018-09-20T07:40:54.499Z,8.30
2018-09-20T07:43:22.926Z,8.40
2018-09-20T07:45:51.450Z,9.33
2018-09-20T07:48:20.062Z,7.70
2018-09-20T07:50:48.523Z,7.57
2018-09-20T07:53:17.089Z,7.80
2018-09-20T07:55:45.615Z,6.67
2018-09-20T07:58:14.403Z,7.17
2018-09-20T08:00:45.111Z,8.10
2018-09-20T08:03:16.892Z,6.40
2018-09-20T08:05:45.734Z,6.63
2018-09-20T08:11:20.042Z,6.10
2018-09-20T08:13:54.975Z,6.50
2018-09-20T08:16:23.455Z,5.87
2018-09-20T08:18:52.171Z,6.43
2018-09-20T08:21:20.542Z,6.43
2018-09-20T08:23:48.875Z,6.10
2018-09-20T08:26:18.400Z,6.70
2018-09-20T08:28:46.910Z,5.43
2018-09-20T08:31:15.317Z,5.37
2018-09-20T08:33:43.633Z,5.10
2018-09-20T08:36:11.949Z,5.60
2018-09-20T08:38:40.273Z,5.50
2018-09-20T08:41:08.832Z,5.20
2018-09-20T08:43:37.700Z,5.27
2018-09-20T08:46:08.103Z,5.40
2018-09-20T08:48:36.466Z,5.87
2018-09-20T08:51:04.917Z,5.90
2018-09-20T08:53:33.201Z,10.20
2018-09-20T08:56:03.065Z,6.07
2018-09-20T08:58:33.108Z,5.67
2018-09-20T09:01:08.582Z,4.47
2018-09-20T09:03:37.224Z,4.83
2018-09-20T09:06:05.824Z,5.10
2018-09-20T09:08:34.188Z,3.80
2018-09-20T09:11:02.818Z,4.40
2018-09-20T09:13:31.249Z,5.17
2018-09-20T09:15:59.846Z,4.63
2018-09-20T09:18:28.231Z,5.37
2018-09-20T09:20:56.558Z,5.03
2018-09-20T09:23:25.092Z,4.50
2018-09-20T09:25:53.468Z,4.97
2018-09-20T09:28:22.259Z,4.70
2018-09-20T09:30:50.871Z,4.70
2018-09-20T09:33:19.474Z,4.53
2018-09-20T09:35:48.931Z,4.20
2018-09-20T09:38:18.215Z,4.60
2018-09-20T09:40:46.712Z,4.10
2018-09-20T09:43:15.137Z,4.13
2018-09-20T09:45:43.552Z,4.80
2018-09-20T09:48:12.040Z,4.40
2018-09-20T09:50:40.679Z,4.80
2018-09-20T09:53:10.330Z,4.03
2018-09-20T09:55:38.713Z,4.50
2018-09-20T09:58:07.052Z,4.43
2018-09-20T10:00:37.304Z,4.03
2018-09-20T10:03:05.783Z,4.17
2018-09-20T10:05:34.650Z,3.73
2018-09-20T10:08:03.033Z,4.63
2018-09-20T10:10:31.393Z,4.50
2018-09-20T10:12:59.754Z,4.27
2018-09-20T10:15:28.395Z,4.70
2018-09-20T10:17:56.708Z,4.20
2018-09-20T10:20:25.064Z,4.03
2018-09-20T10:22:54.401Z,4.00
2018-09-20T10:25:22.735Z,4.03
2018-09-20T10:27:51.582Z,4.47
2018-09-20T10:30:20.982Z,3.97
2018-09-20T10:32:49.603Z,4.27
2018-09-20T10:35:18.014Z,4.30
2018-09-20T10:37:46.368Z,4.30
2018-09-20T10:40:14.786Z,4.00
2018-09-20T10:42:43.835Z,4.87
2018-09-20T10:45:12.707Z,3.50
2018-09-20T10:47:41.664Z,3.83
2018-09-20T10:50:10.314Z,3.60
2018-09-20T10:52:38.797Z,3.10
2018-09-20T10:55:07.186Z,3.80
2018-09-20T10:57:35.603Z,4.50
2018-09-20T11:00:03.953Z,4.30
2018-09-20T11:02:33.687Z,4.20
2018-09-20T11:05:03.059Z,4.23
2018-09-20T11:07:32.439Z,3.60
2018-09-20T11:10:00.803Z,3.93
2018-09-20T11:12:30.006Z,4.27
2018-09-20T11:14:58.706Z,3.53
2018-09-20T11:17:28.147Z,4.27
2018-09-20T11:19:56.579Z,3.53
2018-09-20T11:22:24.930Z,3.40
2018-09-20T11:24:54.198Z,3.40
2018-09-20T11:27:22.721Z,3.70
2018-09-20T11:29:51.313Z,2.63
2018-09-20T11:32:19.839Z,3.20
2018-09-20T11:34:48.152Z,3.17
2018-09-20T11:37:17.582Z,2.73
2018-09-20T11:39:45.912Z,3.50
2018-09-20T11:42:15.203Z,3.27
2018-09-20T11:44:44.077Z,3.30
2018-09-20T11:47:12.507Z,3.70
2018-09-20T11:49:41.555Z,3.23
2018-09-20T11:52:10.061Z,3.13
2018-09-20T11:54:38.592Z,2.83
2018-09-20T11:57:07.999Z,2.73
2018-09-20T11:59:36.726Z,3.20
2018-09-20T12:02:05.803Z,4.10
2018-09-20T12:04:35.160Z,3.60
2018-09-20T12:07:03.540Z,3.37
2018-09-20T12:09:33.700Z,3.40
2018-09-20T12:12:03.169Z,3.50
2018-09-20T12:14:31.535Z,4.00
2018-09-20T12:17:00.666Z,4.13
2018-09-20T12:19:29.204Z,4.10
2018-09-20T12:21:57.684Z,4.33
2018-09-20T12:24:25.994Z,4.80
2018-09-20T12:26:54.421Z,4.47
2018-09-20T12:29:22.768Z,4.20
2018-09-20T12:31:51.279Z,4.40
2018-09-20T12:34:19.701Z,4.00
2018-09-20T12:36:48.116Z,4.17
2018-09-20T12:39:17.430Z,4.30
2018-09-20T12:41:45.828Z,4.40
2018-09-20T12:44:14.522Z,3.70
2018-09-20T12:46:43.898Z,4.00
2018-09-20T12:49:12.397Z,3.83
2018-09-20T12:51:40.807Z,3.50
2018-09-20T12:54:13.746Z,3.80
2018-09-20T12:56:43.115Z,4.00
2018-09-20T12:59:12.177Z,3.30
2018-09-20T13:01:41.320Z,3.20
2018-09-20T13:04:11.251Z,3.50
2018-09-20T13:06:40.308Z,3.13
2018-09-20T13:09:10.987Z,3.30
2018-09-20T13:11:39.493Z,2.67
2018-09-20T13:14:08.168Z,2.70
2018-09-20T13:16:36.627Z,2.20
2018-09-20T13:19:05.458Z,2.53
2018-09-20T13:21:33.895Z,2.50
2018-09-20T13:24:02.205Z,2.47
2018-09-20T13:26:30.728Z,2.53
2018-09-20T13:28:59.491Z,2.80
2018-09-20T13:31:28.051Z,2.70
2018-09-20T13:33:56.372Z,2.67
2018-09-20T13:36:24.796Z,2.80
2018-09-20T13:38:53.231Z,2.10
2018-09-20T13:41:21.678Z,2.60
2018-09-20T13:43:50.280Z,2.77
2018-09-20T13:46:19.522Z,2.90
2018-09-20T13:48:47.863Z,3.17
2018-09-20T13:51:16.267Z,3.20
2018-09-20T13:53:45.095Z,2.87
2018-09-20T13:56:15.647Z,2.87
2018-09-20T13:58:50.355Z,3.47
2018-09-20T14:01:18.920Z,3.40
2018-09-20T14:03:49.448Z,3.23
2018-09-20T14:06:19.978Z,3.10
2018-09-20T14:08:48.754Z,3.50
2018-09-20T14:11:17.152Z,3.80
2018-09-20T14:13:47.557Z,3.27
2018-09-20T14:16:16.253Z,3.70
2018-09-20T14:18:44.819Z,3.70
2018-09-20T14:21:13.226Z,3.30
2018-09-20T14:23:42.159Z,4.30
2018-09-20T14:26:10.581Z,3.63
2018-09-20T14:28:39.026Z,4.07
2018-09-20T14:31:08.029Z,4.20
2018-09-20T14:33:36.400Z,3.83
2018-09-20T14:36:05.208Z,4.47
2018-09-20T14:38:34.001Z,4.20
2018-09-20T14:41:02.380Z,4.00
2018-09-20T14:43:31.634Z,3.73
2018-09-20T14:46:00.848Z,3.67
2018-09-20T14:48:29.392Z,4.30
2018-09-20T14:50:58.340Z,3.80
2018-09-20T14:53:27.744Z,3.90
2018-09-20T14:55:57.371Z,4.20
2018-09-20T14:58:27.283Z,4.43
2018-09-20T15:00:56.207Z,4.10
2018-09-20T15:03:25.333Z,3.97
2018-09-20T15:05:53.819Z,3.37
2018-09-20T15:08:23.165Z,4.37
2018-09-20T15:10:51.781Z,4.37
2018-09-20T15:13:21.538Z,4.37
2018-09-20T15:15:49.931Z,4.47
2018-09-20T15:18:20.631Z,4.10
2018-09-20T15:20:49.596Z,3.80
2018-09-20T15:23:18.141Z,4.50
2018-09-20T15:25:47.154Z,4.60
2018-09-20T15:28:15.653Z,3.90
2018-09-20T15:30:45.839Z,4.30
2018-09-20T15:33:14.882Z,4.53
2018-09-20T15:35:44.044Z,4.13
2018-09-20T15:38:13.416Z,4.57
2018-09-20T15:40:42.305Z,4.50
2018-09-20T15:43:10.766Z,4.60
2018-09-20T15:45:39.599Z,3.97
2018-09-20T15:48:08.622Z,4.10
2018-09-20T15:50:38.933Z,4.30
2018-09-20T15:53:07.350Z,4.40
2018-09-20T15:55:35.726Z,4.50
2018-09-20T15:58:07.841Z,4.40
2018-09-20T16:00:38.366Z,4.43
2018-09-20T16:03:07.006Z,4.33
2018-09-20T16:05:35.696Z,5.13
2018-09-20T16:08:05.369Z,4.80
2018-09-20T16:10:33.772Z,4.93
2018-09-20T16:13:02.253Z,4.23
2018-09-20T16:15:30.665Z,4.30
2018-09-20T16:17:59.207Z,4.60
2018-09-20T16:20:27.928Z,4.63
2018-09-20T16:22:56.725Z,4.57
2018-09-20T16:25:26.079Z,4.13
2018-09-20T16:27:58.329Z,5.47
2018-09-20T16:30:40.971Z,4.47
2018-09-20T16:34:03.175Z,5.10
2018-09-20T16:36:48.755Z,4.80
2018-09-20T16:39:20.819Z,4.20
2018-09-20T16:41:53.543Z,7.17
2018-09-20T16:47:01.249Z,8.97
2018-09-20T16:49:29.869Z,7.10
2018-09-20T16:51:59.146Z,8.23
2018-09-20T16:54:27.510Z,6.83
2018-09-20T16:56:55.937Z,5.93
2018-09-20T16:59:25.188Z,5.77
2018-09-20T17:01:54.081Z,5.80
2018-09-20T17:04:24.439Z,6.10
2018-09-20T17:06:53.515Z,5.80
2018-09-20T17:09:22.457Z,5.90
2018-09-20T17:11:50.968Z,6.20
2018-09-20T17:14:19.334Z,6.37
2018-09-20T17:16:47.766Z,6.70
2018-09-20T17:19:16.418Z,6.80
2018-09-20T17:21:45.078Z,5.43
2018-09-20T17:24:14.430Z,5.80
2018-09-20T17:26:44.057Z,5.77
2018-09-20T17:29:12.982Z,6.00
2018-09-20T17:31:41.320Z,5.90
2018-09-20T17:34:14.725Z,6.73
2018-09-20T17:36:43.840Z,6.97
2018-09-20T17:39:14.884Z,6.67
2018-09-20T17:41:45.656Z,5.80
2018-09-20T17:44:14.239Z,7.30
2018-09-20T17:46:44.082Z,6.20
2018-09-20T17:49:12.914Z,6.23
2018-09-20T17:51:42.041Z,6.47
2018-09-20T17:54:10.851Z,7.13
2018-09-20T17:56:40.278Z,8.20
2018-09-20T17:59:09.163Z,7.43
2018-09-20T18:01:40.400Z,8.80
2018-09-20T18:04:10.427Z,7.93
2018-09-20T18:06:39.167Z,8.47
2018-09-20T18:09:11.025Z,7.57
2018-09-20T18:11:40.719Z,7.30
2018-09-20T18:14:09.839Z,7.93
2018-09-20T18:16:41.015Z,7.57
2018-09-20T18:19:09.597Z,6.80
2018-09-20T18:21:38.198Z,7.43
2018-09-20T18:24:09.735Z,6.63
2018-09-20T18:26:38.819Z,6.53
2018-09-20T18:29:08.654Z,7.00
2018-09-20T18:31:37.916Z,7.90
2018-09-20T18:34:07.258Z,7.67
2018-09-20T18:36:36.287Z,9.00
2018-09-20T18:39:07.947Z,7.20
2018-09-20T18:41:37.399Z,7.70
2018-09-20T18:44:06.890Z,6.67
2018-09-20T18:46:35.315Z,7.13
2018-09-20T18:50:06.794Z,7.40
2018-09-20T18:52:36.496Z,8.03
2018-09-20T18:55:05.287Z,7.50
2018-09-20T18:57:33.687Z,7.83
2018-09-20T19:00:03.709Z,8.43
2018-09-20T19:02:33.651Z,8.23
2018-09-20T19:05:10.722Z,8.63
2018-09-20T19:07:39.440Z,7.17
2018-09-20T19:10:14.255Z,8.60
2018-09-20T19:12:42.799Z,8.93
2018-09-20T19:15:12.216Z,7.63
2018-09-20T19:17:41.327Z,7.67
2018-09-20T19:20:09.991Z,8.13
2018-09-20T19:22:38.900Z,7.83
2018-09-20T19:25:08.343Z,7.77
2018-09-20T19:27:37.794Z,7.60
2018-09-20T19:30:07.294Z,7.07
2018-09-20T19:32:36.288Z,8.50
2018-09-20T19:35:05.158Z,8.07
2018-09-20T19:37:34.289Z,9.03
2018-09-20T19:40:03.801Z,7.90
2018-09-20T19:42:32.556Z,7.73
2018-09-20T19:45:02.303Z,8.93
2018-09-20T19:47:31.758Z,9.43
2018-09-20T19:50:00.426Z,9.27
2018-09-20T19:52:29.124Z,8.00
2018-09-20T19:54:59.855Z,8.60
2018-09-20T19:57:28.654Z,9.43
2018-09-20T19:59:57.073Z,8.47
2018-09-20T20:02:25.816Z,9.30
2018-09-20T20:04:54.802Z,9.53
2018-09-20T20:07:24.598Z,9.20
2018-09-20T20:09:53.148Z,8.57
2018-09-20T20:12:21.939Z,9.47
2018-09-20T20:14:51.709Z,8.30
2018-09-20T20:17:20.059Z,10.17
2018-09-20T20:19:49.654Z,9.73
2018-09-20T20:22:18.629Z,9.70
2018-09-20T20:24:46.977Z,10.17
2018-09-20T20:27:15.457Z,9.87
2018-09-20T20:29:44.181Z,9.67
2018-09-20T20:32:13.027Z,10.03
2018-09-20T20:34:42.538Z,10.83
2018-09-20T20:37:11.713Z,10.60
2018-09-20T20:39:41.692Z,11.70
2018-09-20T20:42:12.400Z,11.10
2018-09-20T20:44:41.744Z,11.13
2018-09-20T20:47:11.423Z,12.63
2018-09-20T20:49:40.909Z,12.20
2018-09-20T20:52:10.760Z,12.17
2018-09-20T20:54:39.404Z,12.13
2018-09-20T20:57:07.739Z,11.73
2018-09-20T20:59:36.704Z,11.30
2018-09-20T21:02:06.610Z,12.50
2018-09-20T21:04:35.812Z,12.23
2018-09-20T21:07:04.295Z,12.40
2018-09-20T21:09:32.731Z,10.70
2018-09-20T21:12:01.071Z,12.50
2018-09-20T21:14:30.193Z,12.07
2018-09-20T21:16:58.561Z,11.90
2018-09-20T21:19:26.895Z,11.90
2018-09-20T21:21:55.232Z,12.10
2018-09-20T21:24:24.516Z,12.10
2018-09-20T21:26:53.050Z,12.90
2018-09-20T21:29:21.466Z,12.83
2018-09-20T21:31:50.378Z,12.40
2018-09-20T21:34:18.657Z,13.37
2018-09-20T21:36:55.560Z,12.07
2018-09-20T21:39:28.074Z,12.33
2018-09-20T21:41:56.757Z,12.47
2018-09-20T21:44:25.190Z,13.23
2018-09-20T21:46:54.767Z,11.63
2018-09-20T21:49:27.053Z,11.63
2018-09-20T21:51:55.562Z,12.13
2018-09-20T21:54:23.869Z,12.30
2018-09-20T21:56:52.693Z,13.23
2018-09-20T21:59:20.982Z,13.70
2018-09-20T22:01:54.887Z,12.20
2018-09-20T22:04:24.099Z,13.23
2018-09-20T22:06:53.314Z,12.93
2018-09-20T22:09:21.594Z,13.20
2018-09-20T22:11:49.992Z,12.63
2018-09-20T22:14:18.763Z,12.90
2018-09-20T22:16:48.424Z,12.90
2018-09-20T22:19:17.107Z,14.60
2018-09-20T22:21:45.525Z,14.03
2018-09-20T22:24:13.814Z,13.33
2018-09-20T22:26:42.121Z,12.03
2018-09-20T22:29:10.415Z,14.60
2018-09-20T22:31:39.210Z,14.33
2018-09-20T22:34:07.704Z,13.20
2018-09-20T22:36:36.140Z,12.80
2018-09-20T22:39:07.331Z,13.63
2018-09-20T22:41:35.867Z,13.43
2018-09-20T22:44:04.804Z,14.80
2018-09-20T22:46:33.218Z,14.73
2018-09-20T22:49:01.880Z,13.40
2018-09-20T22:51:30.232Z,14.10
2018-09-20T22:53:59.183Z,15.60
2018-09-20T22:56:27.534Z,13.73
2018-09-20T22:58:56.026Z,13.83
2018-09-20T23:01:25.417Z,14.13
2018-09-20T23:03:54.748Z,14.20
2018-09-20T23:06:23.131Z,14.00
2018-09-20T23:08:51.566Z,14.13
2018-09-20T23:11:20.438Z,13.53
2018-09-20T23:13:48.833Z,14.87
2018-09-20T23:16:17.178Z,13.97
2018-09-20T23:18:45.570Z,14.13
2018-09-20T23:21:13.882Z,12.83
2018-09-20T23:23:42.190Z,13.93
2018-09-20T23:26:10.506Z,13.07
2018-09-20T23:28:38.799Z,13.60
2018-09-20T23:31:07.327Z,13.90
2018-09-20T23:33:35.963Z,13.93
2018-09-20T23:36:04.279Z,13.37
2018-09-20T23:38:32.565Z,14.43
2018-09-20T23:41:00.910Z,13.47
2018-09-20T23:43:29.215Z,15.33
2018-09-20T23:45:58.316Z,13.20
2018-09-20T23:48:26.614Z,13.03
2018-09-20T23:51:57.664Z,13.23
2018-09-20T23:54:26.110Z,14.10
2018-09-20T23:56:54.683Z,13.73
2018-09-20T23:59:23.042Z,15.30
